Time;durP1;ratioP1;P1;durP2;ratioP2;P2;SDS_P1;SDS_P2;PMS_P1;PMS_P2;Temp;Humidity;BMP_temperature;BMP_pressure;BME280_temperature;BME280_humidity;BME280_pressure;Samples;Min_cycle;Max_cycle;Signal;HPM_P1;HPM_P2
2023/10/25 00:00:57;;;;;;;5.63;2.33;;;8.90;99.90;;;;;;5091601;28;20083;-34
2023/10/25 00:03:23;;;;;;;4.95;1.90;;;8.90;99.90;;;;;;5091061;28;20040;-35
2023/10/25 00:05:49;;;;;;;7.10;2.30;;;8.90;99.90;;;;;;5092173;28;20102;-34
2023/10/25 00:08:14;;;;;;;11.63;3.60;;;8.80;99.90;;;;;;5091882;28;20060;-34
2023/10/25 00:10:40;;;;;;;7.15;2.42;;;8.90;99.90;;;;;;5091370;28;20155;-34
2023/10/25 00:13:05;;;;;;;5.43;2.03;;;8.80;99.90;;;;;;5091957;28;20466;-35
2023/10/25 00:15:31;;;;;;;7.30;2.03;;;8.80;99.90;;;;;;5091523;28;20044;-35
2023/10/25 00:17:57;;;;;;;4.70;1.75;;;8.80;99.90;;;;;;5091981;28;20055;-35
2023/10/25 00:20:22;;;;;;;6.07;2.30;;;8.80;99.90;;;;;;5091290;28;20123;-35
2023/10/25 00:22:48;;;;;;;4.63;2.00;;;8.80;99.90;;;;;;5092371;28;20044;-35
2023/10/25 00:25:13;;;;;;;6.38;2.10;;;8.80;99.90;;;;;;5086042;28;20051;-35
2023/10/25 00:27:39;;;;;;;6.18;2.38;;;8.80;99.90;;;;;;5092190;28;20100;-35
2023/10/25 00:30:05;;;;;;;5.57;2.60;;;8.80;99.90;;;;;;5092486;28;20192;-35
2023/10/25 00:32:31;;;;;;;6.78;2.42;;;8.70;99.90;;;;;;5072360;28;20052;-35
2023/10/25 00:34:56;;;;;;;6.43;2.47;;;8.70;99.90;;;;;;5091911;28;20459;-35
2023/10/25 00:37:22;;;;;;;5.05;2.38;;;8.70;99.90;;;;;;5091154;28;20058;-35
2023/10/25 00:39:48;;;;;;;5.47;2.65;;;8.70;99.90;;;;;;5091932;28;20048;-34
2023/10/25 00:42:13;;;;;;;5.20;2.30;;;8.70;99.90;;;;;;5091912;28;20067;-35
2023/10/25 00:44:39;;;;;;;9.30;2.30;;;8.70;99.90;;;;;;5091412;28;20055;-35
2023/10/25 00:47:05;;;;;;;4.50;2.10;;;8.70;99.90;;;;;;5092820;28;20062;-34
2023/10/25 00:49:32;;;;;;;7.85;2.58;;;8.70;99.90;;;;;;5089593;28;20140;-35
2023/10/25 00:51:58;;;;;;;5.32;2.50;;;8.60;99.90;;;;;;5074170;28;20082;-35
2023/10/25 00:54:23;;;;;;;6.72;2.38;;;8.60;99.90;;;;;;5091419;28;20043;-34
2023/10/25 00:56:50;;;;;;;4.90;2.25;;;8.60;99.90;;;;;;5091783;28;20153;-34
2023/10/25 00:59:17;;;;;;;4.30;2.00;;;8.60;99.90;;;;;;5091654;28;20523;-34
2023/10/25 01:01:44;;;;;;;5.15;2.20;;;8.60;99.90;;;;;;5086530;28;20049;-34
2023/10/25 01:04:10;;;;;;;4.93;2.03;;;8.60;99.90;;;;;;5090023;28;20044;-34
2023/10/25 01:06:35;;;;;;;9.40;2.55;;;8.50;99.90;;;;;;5090288;28;20048;-34
2023/10/25 01:09:01;;;;;;;5.55;2.08;;;8.50;99.90;;;;;;5099629;28;20052;-34
2023/10/25 01:11:26;;;;;;;6.70;2.47;;;8.50;99.90;;;;;;5090855;28;20052;-34
2023/10/25 01:13:52;;;;;;;6.22;2.13;;;8.50;99.90;;;;;;5091292;28;20437;-34
2023/10/25 01:16:19;;;;;;;4.82;2.50;;;8.40;99.90;;;;;;5091458;28;20044;-35
2023/10/25 01:18:44;;;;;;;6.78;2.30;;;8.50;99.90;;;;;;5085432;28;20497;-34
2023/10/25 01:21:10;;;;;;;5.38;2.60;;;8.50;99.90;;;;;;5091247;28;20048;-34
2023/10/25 01:23:36;;;;;;;8.90;3.05;;;8.40;99.90;;;;;;5090281;28;20516;-34
2023/10/25 01:26:01;;;;;;;10.18;2.75;;;8.50;99.90;;;;;;5061236;28;20104;-35
2023/10/25 01:28:27;;;;;;;8.18;2.67;;;8.40;99.90;;;;;;5072854;28;20041;-34
2023/10/25 01:30:53;;;;;;;8.77;3.17;;;8.50;99.90;;;;;;5084473;28;20071;-36
2023/10/25 01:33:18;;;;;;;8.68;3.50;;;8.50;99.90;;;;;;5085120;28;20048;-33
2023/10/25 01:35:44;;;;;;;8.88;3.13;;;8.50;99.90;;;;;;5086651;28;20055;-36
2023/10/25 01:38:10;;;;;;;8.63;3.80;;;8.50;99.90;;;;;;5085838;28;20052;-34
2023/10/25 01:40:35;;;;;;;5.82;3.40;;;8.40;99.90;;;;;;5069808;28;20097;-34
2023/10/25 01:43:01;;;;;;;9.65;4.53;;;8.40;99.90;;;;;;5067505;28;20184;-35
2023/10/25 01:45:30;;;;;;;8.50;3.63;;;8.40;99.90;;;;;;5087502;28;20056;-34
2023/10/25 01:47:56;;;;;;;8.38;4.60;;;8.40;99.90;;;;;;5072854;28;20040;-37
2023/10/25 01:50:21;;;;;;;9.73;3.63;;;8.40;99.90;;;;;;5098527;28;20054;-34
2023/10/25 01:52:47;;;;;;;9.15;3.90;;;8.40;99.90;;;;;;5073581;28;20048;-35
2023/10/25 01:55:13;;;;;;;7.78;4.32;;;8.40;99.90;;;;;;5070399;28;20044;-34
2023/10/25 01:57:38;;;;;;;6.60;3.50;;;8.40;99.90;;;;;;5082624;28;20105;-34
2023/10/25 02:00:06;;;;;;;6.55;3.35;;;8.40;99.90;;;;;;5077345;28;20068;-35
2023/10/25 02:02:33;;;;;;;7.53;3.35;;;8.40;99.90;;;;;;5067313;28;20052;-36
2023/10/25 02:04:59;;;;;;;10.10;3.97;;;8.40;99.90;;;;;;5079062;28;20056;-36
2023/10/25 02:07:24;;;;;;;6.25;2.97;;;8.30;99.90;;;;;;5089504;28;20546;-34
2023/10/25 02:09:50;;;;;;;8.25;3.92;;;8.30;99.90;;;;;;5071833;28;20123;-35
2023/10/25 02:12:16;;;;;;;5.43;2.88;;;8.20;99.90;;;;;;5090030;28;20475;-35
2023/10/25 02:14:41;;;;;;;8.52;3.22;;;8.20;99.90;;;;;;5086090;28;20052;-34
2023/10/25 02:17:07;;;;;;;8.85;3.70;;;8.20;99.90;;;;;;5083718;28;20053;-34
2023/10/25 02:19:33;;;;;;;6.43;2.80;;;8.20;99.90;;;;;;5066680;28;20102;-34
2023/10/25 02:21:59;;;;;;;9.18;3.47;;;8.20;99.90;;;;;;5088506;28;20375;-36
2023/10/25 02:24:25;;;;;;;9.07;4.03;;;8.20;99.90;;;;;;5080916;28;20047;-39
2023/10/25 02:26:51;;;;;;;8.50;3.05;;;8.20;99.90;;;;;;5068596;28;20087;-34
2023/10/25 02:29:17;;;;;;;8.23;3.38;;;8.20;99.90;;;;;;5062048;28;20062;-35
2023/10/25 02:31:43;;;;;;;5.82;3.00;;;8.10;99.90;;;;;;5068820;28;20040;-35
2023/10/25 02:34:09;;;;;;;9.02;3.50;;;8.10;99.90;;;;;;5069284;28;20384;-35
2023/10/25 02:36:35;;;;;;;9.43;3.83;;;8.10;99.90;;;;;;5068643;28;20048;-35
2023/10/25 02:39:01;;;;;;;7.38;3.88;;;8.10;99.90;;;;;;5051429;28;20048;-35
2023/10/25 02:41:26;;;;;;;8.90;3.88;;;8.10;99.90;;;;;;5051351;28;20490;-35
2023/10/25 02:43:53;;;;;;;7.47;3.83;;;8.10;99.90;;;;;;5068957;28;20162;-35
2023/10/25 02:46:20;;;;;;;8.52;3.78;;;8.00;99.90;;;;;;5068843;28;20053;-35
2023/10/25 02:48:45;;;;;;;9.13;3.70;;;8.00;99.90;;;;;;5068929;28;20464;-34
2023/10/25 02:51:12;;;;;;;8.20;3.70;;;8.00;99.90;;;;;;5069285;28;20060;-36
2023/10/25 02:53:37;;;;;;;9.30;3.40;;;8.00;99.90;;;;;;5068426;28;20048;-34
2023/10/25 02:56:05;;;;;;;10.25;3.50;;;8.00;99.90;;;;;;5069132;28;20102;-34
2023/10/25 02:58:31;;;;;;;6.85;3.55;;;8.00;99.90;;;;;;5066943;28;20059;-34
2023/10/25 03:00:57;;;;;;;5.82;2.92;;;8.00;99.90;;;;;;5069284;28;20060;-34
2023/10/25 03:03:31;;;;;;;6.20;3.72;;;8.00;99.90;;;;;;5069398;28;20414;-34
2023/10/25 03:05:57;;;;;;;7.35;3.42;;;8.00;99.90;;;;;;5068719;28;20048;-35
2023/10/25 03:08:23;;;;;;;10.95;3.90;;;8.00;99.90;;;;;;5069145;28;20552;-37
2023/10/25 03:10:48;;;;;;;6.90;3.15;;;8.00;99.90;;;;;;5058284;28;20052;-37
2023/10/25 03:13:14;;;;;;;7.25;3.42;;;7.90;99.90;;;;;;5064377;28;20040;-35
2023/10/25 03:15:40;;;;;;;4.82;2.42;;;7.90;99.90;;;;;;5068470;28;20063;-34
2023/10/25 03:18:06;;;;;;;6.97;3.10;;;7.90;99.90;;;;;;5068965;28;20093;-35
2023/10/25 03:20:32;;;;;;;8.25;3.35;;;7.90;99.90;;;;;;5048080;28;20049;-35
2023/10/25 03:22:58;;;;;;;8.30;3.30;;;7.90;99.90;;;;;;5067349;28;20459;-34
2023/10/25 03:25:24;;;;;;;7.95;3.13;;;7.90;99.90;;;;;;5082856;28;20050;-35
2023/10/25 03:27:50;;;;;;;7.38;3.22;;;7.90;99.90;;;;;;5088228;28;20072;-35
2023/10/25 03:30:17;;;;;;;7.05;3.00;;;7.90;99.90;;;;;;5074174;28;20093;-35
2023/10/25 03:32:43;;;;;;;8.43;3.08;;;7.90;99.90;;;;;;5090387;28;20490;-35
2023/10/25 03:35:09;;;;;;;8.38;2.92;;;7.90;99.90;;;;;;5093140;28;20101;-35
2023/10/25 03:37:39;;;;;;;8.98;3.13;;;7.90;99.90;;;;;;5092407;28;20516;-34
2023/10/25 03:40:09;;;;;;;6.85;2.83;;;7.90;99.90;;;;;;5093031;28;20058;-35
2023/10/25 03:42:35;;;;;;;7.55;2.60;;;7.90;99.90;;;;;;5093246;28;20044;-35
2023/10/25 03:45:01;;;;;;;5.43;2.58;;;7.90;99.90;;;;;;5092628;28;20455;-35
2023/10/25 03:47:27;;;;;;;6.30;2.72;;;7.80;99.90;;;;;;5093174;28;20093;-35
2023/10/25 03:49:53;;;;;;;6.40;2.58;;;7.80;99.90;;;;;;5092276;28;20044;-35
2023/10/25 03:52:19;;;;;;;8.63;3.10;;;7.80;99.90;;;;;;5092972;28;20052;-35
2023/10/25 03:54:44;;;;;;;5.70;2.45;;;7.80;99.90;;;;;;5091606;28;20080;-35
2023/10/25 03:57:10;;;;;;;8.68;2.67;;;7.80;99.90;;;;;;5093195;28;20052;-34
2023/10/25 03:59:35;;;;;;;6.60;3.10;;;7.80;99.90;;;;;;5092519;28;20529;-34
2023/10/25 04:02:01;;;;;;;6.45;2.60;;;7.80;99.90;;;;;;5092507;28;20052;-34
2023/10/25 04:04:27;;;;;;;7.50;2.95;;;7.80;99.90;;;;;;5092633;28;20062;-34
2023/10/25 04:06:53;;;;;;;6.82;2.63;;;7.70;99.90;;;;;;5089950;28;20060;-34
2023/10/25 04:09:19;;;;;;;8.07;2.67;;;7.70;99.90;;;;;;5092746;28;20051;-34
2023/10/25 04:11:45;;;;;;;6.78;2.78;;;7.70;99.90;;;;;;5091799;28;20071;-34
2023/10/25 04:14:10;;;;;;;5.60;2.97;;;7.70;99.90;;;;;;5092845;28;20186;-36
2023/10/25 04:16:37;;;;;;;7.57;2.92;;;7.70;99.90;;;;;;5092206;28;20058;-35
2023/10/25 04:19:02;;;;;;;4.28;2.33;;;7.70;99.90;;;;;;5091331;28;20062;-34
2023/10/25 04:21:28;;;;;;;8.27;3.13;;;7.70;99.90;;;;;;5092392;28;20040;-35
2023/10/25 04:23:53;;;;;;;9.02;3.58;;;7.70;99.90;;;;;;5089573;28;20097;-34
2023/10/25 04:26:19;;;;;;;7.72;3.00;;;7.70;99.90;;;;;;5078794;28;20059;-34
2023/10/25 04:28:45;;;;;;;5.72;2.95;;;7.70;99.90;;;;;;5052361;28;20056;-34
2023/10/25 04:31:11;;;;;;;8.80;2.70;;;7.70;99.90;;;;;;5068865;28;20060;-34
2023/10/25 04:33:38;;;;;;;9.88;3.20;;;7.70;99.90;;;;;;5053964;28;20045;-34
2023/10/25 04:36:04;;;;;;;8.80;3.45;;;7.60;99.90;;;;;;5070956;28;20091;-34
2023/10/25 04:38:30;;;;;;;12.10;3.47;;;7.60;99.90;;;;;;5071451;28;20059;-34
2023/10/25 04:40:56;;;;;;;6.97;2.80;;;7.60;99.90;;;;;;5070485;28;20048;-35
2023/10/25 04:43:22;;;;;;;7.13;3.38;;;7.60;99.90;;;;;;5071246;28;20075;-34
2023/10/25 04:45:48;;;;;;;6.60;4.05;;;7.50;99.90;;;;;;5070998;28;20550;-34
2023/10/25 04:48:14;;;;;;;6.28;3.22;;;7.50;99.90;;;;;;5071083;28;20048;-39
2023/10/25 04:50:39;;;;;;;5.93;3.50;;;7.50;99.90;;;;;;5071870;28;20071;-34
2023/10/25 04:53:06;;;;;;;9.10;3.20;;;7.50;99.90;;;;;;5070660;28;20072;-34
2023/10/25 04:55:34;;;;;;;5.07;3.22;;;7.50;99.90;;;;;;5070887;28;20076;-34
2023/10/25 04:58:00;;;;;;;6.45;3.67;;;7.40;99.90;;;;;;5070608;28;20514;-34
2023/10/25 05:00:27;;;;;;;10.88;3.58;;;7.50;99.90;;;;;;5071792;28;20052;-34
2023/10/25 05:02:53;;;;;;;7.93;3.75;;;7.40;99.90;;;;;;5072764;28;20053;-34
2023/10/25 05:05:19;;;;;;;6.07;3.17;;;7.40;99.90;;;;;;5065011;28;20053;-35
2023/10/25 05:07:46;;;;;;;10.23;3.67;;;7.40;99.90;;;;;;5061409;28;20076;-35
2023/10/25 05:10:12;;;;;;;11.07;3.92;;;7.40;99.90;;;;;;5065372;28;20049;-35
2023/10/25 05:12:48;;;;;;;8.52;3.72;;;7.40;99.90;;;;;;5068823;28;20476;-34
2023/10/25 05:15:15;;;;;;;6.97;3.10;;;7.40;99.90;;;;;;5067838;28;20139;-34
2023/10/25 05:17:42;;;;;;;6.22;3.40;;;7.40;99.90;;;;;;5070262;28;20052;-34
2023/10/25 05:20:09;;;;;;;7.70;3.75;;;7.40;99.90;;;;;;5070129;28;20549;-34
2023/10/25 05:22:36;;;;;;;8.05;3.70;;;7.40;99.90;;;;;;5071096;28;20051;-35
2023/10/25 05:25:03;;;;;;;8.07;3.85;;;7.40;99.90;;;;;;5062036;28;20048;-35
2023/10/25 05:27:29;;;;;;;10.80;3.90;;;7.40;99.90;;;;;;5070755;28;20083;-35
2023/10/25 05:29:59;;;;;;;11.00;3.67;;;7.30;99.90;;;;;;5069706;28;20076;-34
2023/10/25 05:32:28;;;;;;;7.05;3.80;;;7.40;99.90;;;;;;5069079;28;20478;-34
2023/10/25 05:34:55;;;;;;;6.53;3.70;;;7.40;99.90;;;;;;5070084;28;20075;-34
2023/10/25 05:37:21;;;;;;;8.13;3.83;;;7.30;99.90;;;;;;5065237;28;20051;-34
2023/10/25 05:39:47;;;;;;;6.97;3.60;;;7.30;99.90;;;;;;5065843;28;20052;-34
2023/10/25 05:42:18;;;;;;;8.38;4.30;;;7.30;99.90;;;;;;5069910;28;20049;-34
2023/10/25 05:44:44;;;;;;;9.00;3.60;;;7.40;99.90;;;;;;5070183;28;20044;-34
2023/10/25 05:47:09;;;;;;;7.68;3.85;;;7.30;99.90;;;;;;5069328;28;20048;-34
2023/10/25 05:49:35;;;;;;;7.57;3.90;;;7.30;99.90;;;;;;5070310;28;20583;-34
2023/10/25 05:52:01;;;;;;;13.73;4.05;;;7.30;99.90;;;;;;5069747;28;20048;-34
2023/10/25 05:54:27;;;;;;;9.60;3.88;;;7.30;99.90;;;;;;5069979;28;20075;-34
2023/10/25 05:56:54;;;;;;;6.88;3.28;;;7.30;99.90;;;;;;5069587;28;20099;-34
2023/10/25 05:59:20;;;;;;;7.32;3.40;;;7.30;99.90;;;;;;5070047;28;20052;-34
2023/10/25 06:02:05;;;;;;;6.75;4.03;;;7.30;99.90;;;;;;5069888;28;20052;-34
2023/10/25 06:04:33;;;;;;;7.45;3.67;;;7.30;99.90;;;;;;5069346;28;20056;-35
2023/10/25 06:06:59;;;;;;;11.27;3.53;;;7.30;99.90;;;;;;5069517;28;20044;-35
2023/10/25 06:09:24;;;;;;;10.50;4.18;;;7.30;99.90;;;;;;5069006;28;20059;-35
2023/10/25 06:11:51;;;;;;;9.05;3.85;;;7.30;99.90;;;;;;5069471;28;20075;-34
2023/10/25 06:14:17;;;;;;;7.80;3.72;;;7.30;99.90;;;;;;5068711;28;20074;-34
2023/10/25 06:16:43;;;;;;;7.43;3.70;;;7.30;99.90;;;;;;5069457;28;20493;-34
2023/10/25 06:19:09;;;;;;;8.93;3.75;;;7.20;99.90;;;;;;5068785;28;20048;-35
2023/10/25 06:21:34;;;;;;;9.20;3.38;;;7.20;99.90;;;;;;5069471;28;20055;-34
2023/10/25 06:24:00;;;;;;;7.63;3.58;;;7.20;99.90;;;;;;5068945;28;20032;-35
2023/10/25 06:26:25;;;;;;;8.68;3.38;;;7.30;99.90;;;;;;5050553;28;20067;-35
2023/10/25 06:28:51;;;;;;;13.70;4.78;;;7.30;99.90;;;;;;5068957;28;20056;-35
2023/10/25 06:31:17;;;;;;;8.07;3.03;;;7.30;99.90;;;;;;5068399;28;20490;-35
2023/10/25 06:33:42;;;;;;;6.53;3.42;;;7.30;99.90;;;;;;5068781;28;20490;-34
2023/10/25 06:36:09;;;;;;;8.77;3.75;;;7.30;99.90;;;;;;5068928;28;20057;-35
2023/10/25 06:38:35;;;;;;;8.30;4.20;;;7.30;99.90;;;;;;5068623;28;20053;-35
2023/10/25 06:41:02;;;;;;;8.23;3.22;;;7.30;99.90;;;;;;5068942;28;20075;-35
2023/10/25 06:43:29;;;;;;;10.15;3.97;;;7.30;99.90;;;;;;5068238;28;20048;-35
2023/10/25 06:45:55;;;;;;;9.63;3.40;;;7.30;99.90;;;;;;5069103;28;20261;-35
2023/10/25 06:48:21;;;;;;;6.45;3.50;;;7.40;99.90;;;;;;5033887;28;20045;-35
2023/10/25 06:50:47;;;;;;;10.48;3.42;;;7.40;99.90;;;;;;5068772;28;20482;-35
2023/10/25 06:53:13;;;;;;;4.75;2.90;;;7.40;99.90;;;;;;5067797;28;20055;-34
2023/10/25 06:55:39;;;;;;;7.15;3.08;;;7.40;99.90;;;;;;5069051;28;20395;-34
2023/10/25 06:58:05;;;;;;;9.95;3.90;;;7.40;99.90;;;;;;5068658;28;20056;-35
2023/10/25 07:00:31;;;;;;;9.70;3.60;;;7.40;99.90;;;;;;5068415;28;20679;-35
2023/10/25 07:03:02;;;;;;;7.93;4.05;;;7.50;99.90;;;;;;5068645;28;20053;-35
2023/10/25 07:05:29;;;;;;;9.32;3.60;;;7.50;99.90;;;;;;5069010;28;20127;-36
2023/10/25 07:07:56;;;;;;;10.13;3.60;;;7.50;99.90;;;;;;5068789;28;20056;-36
2023/10/25 07:10:23;;;;;;;10.07;3.35;;;7.60;99.90;;;;;;5049783;28;20044;-35
2023/10/25 07:12:49;;;;;;;8.30;3.72;;;7.60;99.90;;;;;;5069023;28;20052;-35
2023/10/25 07:15:15;;;;;;;8.52;2.70;;;7.70;99.90;;;;;;5067283;28;20103;-35
2023/10/25 07:17:44;;;;;;;6.95;3.03;;;7.70;99.90;;;;;;5068597;28;20487;-35
2023/10/25 07:20:11;;;;;;;7.68;3.03;;;7.80;99.90;;;;;;5050759;28;20154;-35
2023/10/25 07:22:38;;;;;;;12.57;3.40;;;7.80;99.90;;;;;;5068228;28;20102;-35
2023/10/25 07:25:07;;;;;;;7.82;3.33;;;7.80;99.90;;;;;;5063082;28;20052;-34
2023/10/25 07:27:37;;;;;;;5.70;3.05;;;7.90;99.90;;;;;;5080868;28;20530;-35
2023/10/25 07:30:04;;;;;;;9.55;3.40;;;7.90;99.90;;;;;;5088780;28;20048;-34
2023/10/25 07:32:31;;;;;;;5.43;3.13;;;8.00;99.90;;;;;;5087927;28;20145;-35
2023/10/25 07:34:57;;;;;;;6.80;3.78;;;8.00;99.90;;;;;;5088774;28;20093;-34
2023/10/25 07:37:22;;;;;;;8.38;3.67;;;8.10;99.90;;;;;;5083719;28;20052;-34
2023/10/25 07:39:48;;;;;;;8.23;3.03;;;8.10;99.90;;;;;;5088811;28;20113;-36
2023/10/25 07:42:14;;;;;;;7.88;4.45;;;8.20;99.90;;;;;;5088444;28;20075;-34
2023/10/25 07:44:39;;;;;;;4.95;3.03;;;8.20;99.90;;;;;;5088250;28;20131;-34
2023/10/25 07:47:05;;;;;;;8.38;3.30;;;8.30;99.90;;;;;;5088598;28;20135;-34
2023/10/25 07:49:36;;;;;;;6.35;2.75;;;8.30;99.90;;;;;;5075277;28;20058;-34
2023/10/25 07:52:03;;;;;;;9.90;3.47;;;8.30;99.90;;;;;;5088523;28;20129;-34
2023/10/25 07:54:29;;;;;;;11.90;3.90;;;8.40;99.90;;;;;;5087712;28;20064;-35
2023/10/25 07:56:54;;;;;;;6.93;3.35;;;8.40;99.90;;;;;;5088439;28;20056;-35
2023/10/25 07:59:20;;;;;;;7.25;3.40;;;8.50;99.90;;;;;;5087418;28;20119;-35
2023/10/25 08:01:46;;;;;;;8.45;3.50;;;8.50;99.90;;;;;;5087773;28;20075;-34
2023/10/25 08:04:11;;;;;;;6.72;3.30;;;8.60;99.90;;;;;;5088682;28;20044;-34
2023/10/25 08:06:38;;;;;;;5.57;3.17;;;8.60;99.90;;;;;;5087146;28;20494;-34
2023/10/25 08:09:03;;;;;;;4.90;2.83;;;8.60;99.90;;;;;;5070352;28;20087;-35
2023/10/25 08:11:34;;;;;;;6.03;3.33;;;8.60;99.90;;;;;;5087400;28;20490;-36
2023/10/25 08:14:00;;;;;;;6.05;3.00;;;8.70;99.90;;;;;;5081234;28;20051;-33
2023/10/25 08:16:25;;;;;;;6.05;3.17;;;8.80;99.90;;;;;;5089549;28;20051;-35
2023/10/25 08:18:51;;;;;;;10.43;3.17;;;8.80;99.90;;;;;;5091705;28;20062;-35
2023/10/25 08:21:17;;;;;;;10.25;3.10;;;8.80;99.90;;;;;;5091722;28;20085;-35
2023/10/25 08:23:45;;;;;;;12.73;5.05;;;8.90;99.90;;;;;;5089054;28;20138;-34
2023/10/25 08:26:11;;;;;;;9.63;4.20;;;8.90;99.90;;;;;;5071859;28;20099;-34
2023/10/25 08:28:37;;;;;;;7.40;3.30;;;9.00;99.90;;;;;;5068813;28;20075;-35
2023/10/25 08:31:12;;;;;;;10.35;3.05;;;9.00;99.90;;;;;;5071993;28;20048;-35
2023/10/25 08:33:38;;;;;;;7.18;3.00;;;9.00;99.90;;;;;;5052587;28;20044;-35
2023/10/25 08:36:05;;;;;;;6.88;3.25;;;9.10;99.90;;;;;;5071115;28;20053;-35
2023/10/25 08:38:30;;;;;;;7.30;3.25;;;9.10;99.90;;;;;;5071209;28;20425;-35
2023/10/25 08:41:06;;;;;;;7.80;3.55;;;9.10;99.90;;;;;;5071135;28;20056;-35
2023/10/25 08:43:33;;;;;;;9.30;3.97;;;9.20;99.90;;;;;;5071003;28;20040;-35
2023/10/25 08:46:05;;;;;;;6.93;3.30;;;9.20;99.90;;;;;;5071444;28;20494;-33
2023/10/25 08:48:32;;;;;;;7.75;3.40;;;9.30;99.90;;;;;;5070941;28;20497;-34
2023/10/25 08:50:59;;;;;;;7.35;3.70;;;9.30;99.90;;;;;;5071554;28;20059;-34
2023/10/25 08:53:26;;;;;;;8.88;3.20;;;9.40;99.90;;;;;;5064478;28;20052;-34
2023/10/25 08:55:53;;;;;;;9.93;3.60;;;9.50;99.90;;;;;;5071377;28;20048;-33
2023/10/25 08:58:20;;;;;;;5.68;3.20;;;9.50;99.90;;;;;;5069978;28;20147;-34
2023/10/25 09:00:46;;;;;;;6.70;3.30;;;9.60;99.90;;;;;;5070842;28;20422;-34
2023/10/25 09:03:30;;;;;;;8.40;3.30;;;9.70;99.90;;;;;;5071212;28;20052;-34
2023/10/25 09:05:56;;;;;;;8.65;3.20;;;9.80;99.90;;;;;;5070015;28;20063;-34
2023/10/25 09:08:26;;;;;;;10.18;3.67;;;9.90;99.90;;;;;;5071523;28;20047;-33
2023/10/25 09:11:02;;;;;;;5.22;2.45;;;10.00;99.90;;;;;;5052532;28;20067;-33
2023/10/25 09:13:37;;;;;;;10.70;3.63;;;10.00;99.90;;;;;;5071423;28;20501;-36
2023/10/25 09:16:10;;;;;;;10.18;3.00;;;10.10;99.90;;;;;;5067470;28;20053;-34
2023/10/25 09:18:37;;;;;;;8.68;3.00;;;10.10;99.90;;;;;;5070981;28;20102;-35
2023/10/25 09:21:04;;;;;;;9.50;3.30;;;10.10;99.90;;;;;;5070238;28;20126;-35
2023/10/25 09:23:30;;;;;;;5.30;3.40;;;10.20;99.90;;;;;;5071053;28;20572;-35
2023/10/25 09:25:58;;;;;;;5.85;3.22;;;10.30;99.90;;;;;;5051853;28;20063;-34
2023/10/25 09:28:29;;;;;;;9.75;3.40;;;10.30;99.90;;;;;;5070881;28;20131;-35
2023/10/25 09:31:00;;;;;;;5.85;2.70;;;10.40;99.90;;;;;;5069754;28;20629;-35
2023/10/25 09:33:30;;;;;;;6.97;3.22;;;10.40;99.90;;;;;;5070905;28;20048;-36
2023/10/25 09:35:57;;;;;;;7.10;2.92;;;10.50;99.90;;;;;;5071627;28;20215;-35
2023/10/25 09:38:24;;;;;;;10.40;2.92;;;10.60;99.90;;;;;;5067008;28;20578;-34
2023/10/25 09:40:50;;;;;;;6.65;3.47;;;10.60;99.90;;;;;;5069661;28;20088;-34
2023/10/25 09:43:21;;;;;;;8.20;3.42;;;10.60;99.90;;;;;;5070271;28;20135;-34
2023/10/25 09:45:56;;;;;;;7.97;3.47;;;10.70;99.90;;;;;;5053797;28;20060;-34
2023/10/25 09:48:22;;;;;;;7.85;3.00;;;10.70;99.90;;;;;;5070189;28;20051;-34
2023/10/25 09:51:03;;;;;;;7.07;2.95;;;10.70;99.90;;;;;;5069908;28;20556;-34
2023/10/25 09:53:38;;;;;;;8.23;3.13;;;10.80;99.90;;;;;;5070567;28;20448;-35
2023/10/25 09:56:05;;;;;;;6.55;2.75;;;10.80;99.90;;;;;;5069820;28;20151;-35
2023/10/25 09:58:35;;;;;;;9.50;3.45;;;10.80;99.90;;;;;;5070359;28;20135;-35
2023/10/25 10:01:05;;;;;;;6.88;3.25;;;10.80;99.90;;;;;;5069803;28;20044;-35
2023/10/25 10:03:46;;;;;;;7.00;2.70;;;10.70;99.90;;;;;;5070069;28;20068;-35
2023/10/25 10:06:33;;;;;;;7.68;3.47;;;10.70;99.90;;;;;;5070033;28;20525;-35
2023/10/25 10:09:22;;;;;;;5.38;2.60;;;10.70;99.90;;;;;;5064691;28;20517;-35
2023/10/25 10:11:53;;;;;;;19.15;4.00;;;10.70;99.90;;;;;;5066840;28;20080;-35
2023/10/25 10:14:31;;;;;;;7.35;3.47;;;10.70;99.90;;;;;;5069863;28;20052;-35
2023/10/25 10:17:03;;;;;;;5.88;2.67;;;10.80;99.90;;;;;;5068083;28;20545;-34
2023/10/25 10:19:36;;;;;;;6.00;2.45;;;10.70;99.90;;;;;;5071902;28;20490;-35
2023/10/25 10:22:04;;;;;;;;;;;10.80;99.90;;;;;;5069190;28;20513;-35
2023/10/25 10:24:52;;;;;;;7.45;2.78;;;10.80;99.90;;;;;;5070233;28;19920;-35
2023/10/25 10:27:27;;;;;;;6.93;3.20;;;10.80;99.90;;;;;;5080302;28;20060;-35
2023/10/25 10:29:53;;;;;;;6.72;2.88;;;10.80;99.90;;;;;;5081674;28;20127;-35
2023/10/25 10:32:19;;;;;;;7.05;3.30;;;10.80;99.90;;;;;;5073549;28;20131;-35
2023/10/25 10:34:53;;;;;;;7.03;2.63;;;10.80;99.90;;;;;;5078977;28;20131;-43
2023/10/25 10:37:29;;;;;;;9.70;3.17;;;10.80;99.90;;;;;;5076789;28;20125;-35
2023/10/25 10:39:57;;;;;;;5.88;2.85;;;10.80;99.90;;;;;;5073693;28;20494;-35
2023/10/25 10:42:26;;;;;;;8.55;3.67;;;10.80;99.90;;;;;;5083869;28;20515;-35
2023/10/25 10:44:52;;;;;;;6.55;3.13;;;10.80;99.90;;;;;;5097045;28;20407;-35
2023/10/25 10:47:22;;;;;;;12.35;2.92;;;10.80;99.90;;;;;;5087934;28;20052;-35
2023/10/25 10:49:56;;;;;;;6.03;3.25;;;10.80;99.90;;;;;;5089778;28;20115;-35
2023/10/25 10:52:23;;;;;;;6.35;3.05;;;10.80;99.90;;;;;;5084349;28;20058;-35
2023/10/25 10:54:49;;;;;;;7.35;3.30;;;10.80;99.90;;;;;;5070726;28;20518;-35
2023/10/25 10:57:16;;;;;;;6.00;2.78;;;10.80;99.90;;;;;;5085472;28;20063;-35
2023/10/25 10:59:45;;;;;;;6.72;3.00;;;10.90;99.90;;;;;;5087593;28;20047;-35
2023/10/25 11:02:12;;;;;;;10.98;3.50;;;10.80;99.90;;;;;;5086043;28;20497;-37
2023/10/25 11:04:47;;;;;;;4.88;2.45;;;10.80;99.90;;;;;;5088536;28;20056;-35
2023/10/25 11:07:13;;;;;;;4.65;2.53;;;10.80;99.90;;;;;;5070042;28;20060;-35
2023/10/25 11:09:38;;;;;;;4.70;2.88;;;10.80;99.90;;;;;;5084724;28;20052;-35
2023/10/25 11:12:12;;;;;;;7.30;3.03;;;10.80;99.90;;;;;;5088610;28;20044;-35
2023/10/25 11:14:45;;;;;;;14.18;3.53;;;10.80;99.90;;;;;;5086333;28;20493;-35
2023/10/25 11:17:12;;;;;;;6.30;2.97;;;10.80;99.90;;;;;;5070553;28;20144;-35
2023/10/25 11:19:38;;;;;;;5.65;2.60;;;10.80;99.90;;;;;;5087616;28;20063;-35
2023/10/25 11:22:04;;;;;;;8.02;3.15;;;10.80;99.90;;;;;;5082918;28;20048;-35
2023/10/25 11:24:30;;;;;;;6.13;2.60;;;10.70;99.90;;;;;;5087238;28;20558;-35
2023/10/25 11:26:55;;;;;;;6.30;2.78;;;10.70;99.90;;;;;;5084939;28;20071;-35
2023/10/25 11:29:22;;;;;;;8.40;2.80;;;10.80;99.90;;;;;;5087477;28;20083;-35
2023/10/25 11:31:50;;;;;;;8.63;2.78;;;10.70;99.90;;;;;;5089170;28;20459;-35
2023/10/25 11:34:19;;;;;;;7.80;2.85;;;10.70;99.90;;;;;;5062328;28;20045;-35
2023/10/25 11:36:47;;;;;;;5.70;2.17;;;10.70;99.90;;;;;;5087015;28;20048;-35
2023/10/25 11:39:13;;;;;;;6.15;2.95;;;10.70;99.90;;;;;;5085756;28;20052;-35
2023/10/25 11:41:39;;;;;;;6.95;2.40;;;10.70;99.90;;;;;;5074725;28;20494;-35
2023/10/25 11:44:06;;;;;;;6.82;2.88;;;10.70;99.90;;;;;;5085958;28;20131;-35
2023/10/25 11:46:41;;;;;;;5.05;2.63;;;10.70;99.90;;;;;;5086795;28;20059;-36
2023/10/25 11:49:07;;;;;;;5.65;3.35;;;10.70;99.90;;;;;;5083411;28;20143;-35
2023/10/25 11:51:34;;;;;;;5.72;2.15;;;10.70;99.90;;;;;;5085089;28;20052;-35
2023/10/25 11:54:04;;;;;;;8.27;2.78;;;10.70;99.90;;;;;;5086993;28;20069;-35
2023/10/25 11:56:29;;;;;;;6.50;2.88;;;10.70;99.90;;;;;;5089658;28;20048;-36
2023/10/25 11:58:56;;;;;;;8.43;2.83;;;10.70;99.90;;;;;;5087437;28;20052;-36
2023/10/25 12:01:21;;;;;;;9.23;2.67;;;10.70;99.90;;;;;;5091974;28;20047;-35
2023/10/25 12:03:47;;;;;;;5.07;2.72;;;10.70;99.90;;;;;;5092818;28;20052;-35
2023/10/25 12:06:13;;;;;;;5.38;2.30;;;10.60;99.90;;;;;;5062859;28;20048;-35
2023/10/25 12:08:40;;;;;;;6.72;2.63;;;10.60;99.90;;;;;;5090951;28;20059;-36
2023/10/25 12:11:10;;;;;;;6.43;2.65;;;10.60;99.90;;;;;;5089875;28;20048;-35
2023/10/25 12:13:39;;;;;;;5.07;2.30;;;10.60;99.90;;;;;;5069176;28;20044;-35
2023/10/25 12:16:06;;;;;;;5.38;2.67;;;10.60;99.90;;;;;;5080674;28;20048;-36
2023/10/25 12:18:33;;;;;;;5.35;2.47;;;10.60;99.90;;;;;;5088731;28;20601;-35
2023/10/25 12:21:06;;;;;;;5.68;2.88;;;10.60;99.90;;;;;;5086852;28;20051;-36
2023/10/25 12:23:32;;;;;;;5.15;2.83;;;10.60;99.90;;;;;;5083575;28;20063;-35
2023/10/25 12:25:59;;;;;;;8.43;2.80;;;10.50;99.90;;;;;;5092548;28;20464;-36
2023/10/25 12:28:26;;;;;;;4.85;2.90;;;10.50;99.90;;;;;;5091605;28;20059;-35
2023/10/25 12:30:52;;;;;;;7.70;2.80;;;10.50;99.90;;;;;;5089717;28;20059;-35
2023/10/25 12:33:18;;;;;;;7.43;2.47;;;10.50;99.90;;;;;;5056311;28;20127;-36
2023/10/25 12:35:44;;;;;;;4.38;2.40;;;10.50;99.90;;;;;;5090752;28;20489;-35
2023/10/25 12:38:09;;;;;;;7.25;3.10;;;10.50;99.90;;;;;;5084507;28;20054;-36
2023/10/25 12:40:35;;;;;;;6.93;3.17;;;10.50;99.90;;;;;;5089950;28;20136;-35
2023/10/25 12:43:01;;;;;;;10.73;3.72;;;10.50;99.90;;;;;;5080214;28;20118;-35
2023/10/25 12:45:28;;;;;;;6.00;2.90;;;10.50;99.90;;;;;;5085889;28;20505;-44
2023/10/25 12:47:54;;;;;;;7.50;2.80;;;10.50;99.90;;;;;;5068170;28;20044;-35
2023/10/25 12:50:19;;;;;;;9.55;2.97;;;10.50;99.90;;;;;;5090269;28;20085;-35
2023/10/25 12:52:45;;;;;;;6.97;3.08;;;10.60;99.90;;;;;;5089021;28;20052;-35